Terminal Aerodrome Forecast
Issued by NWS Wilmington, OH

Home | Current Version | Previous Version | Text Only | Print | Product List | Glossary On
Versions: 1 2 3 4 5 6 7 8 9 10 11 12 13 14 15 16 17 18 19 20 21 22 23 24 25 26 27 28 29 30 31
000
FTUS41 KILN 231100
TAFILN
TAF
KILN 231127Z 2312/2412 00000KT 1/4SM FG VV001
     FM231300 00000KT 4SM BR BKN009
     FM231500 09003KT P6SM BKN018
     FM231700 10006KT P6SM BKN035
     FM240100 04005KT P6SM BKN040
     FM240400 00000KT 2SM BR SCT040
     FM240800 00000KT 1/2SM FG VV002=

USA.gov is the U.S. government's official web portal to all federal, state and local government web resources and services.